Arlington, TX

6:57 AM CST on March 01, 2015 (GMT -0600)
CHAPPARAL VALLEY | Change Station
CLOSE
Current Station
Personal Weather Station
Location: Arlington, TX
Elevation: 643 ft
Nearby Weather Stations

Elev 643 ft 32.70 °N, 97.19 °W | Updated 14 seconds ago

Overcast
Overcast
32.4 °F
Feels Like 32 °F
N
0.0
Wind Variable Wind from NW
Gusts 0.0 mph

Today
High -- | Low -- °F
--% Chance of Precip.
Yesterday
High -- | Low -- °F
Precip. -- in
6:56 AM 6:25 PM
Waxing Gibbous, 85% visible
Pressure 30.33 in
Visibility 2.0 miles
Clouds Overcast 300 ft
Windchill 32 °F
Dew Point 32 °F
Humidity 99%
Rainfall 0.00 in
Snow Depth Not available.
UV 0 out of 12
Pollen 6.50 out of 12
Air Quality Not available.
Flu Activity Not available.
METAR KGKY 011253Z 34007KT 2SM -RA BR OVC003 01/M01 A3032 RMK AO2 SFC VIS 3 RAB03E15B33 SLP269 P0001 T00111011

More Conditions Fewer Conditions

Pressure 30.33 in
Visibility 2.0 miles
Clouds Overcast 300 ft
Windchill 32 °F
Dew Point 32 °F
Humidity 99%
Rainfall 0.00 in
Snow Depth Not available.
UV 0 out of 12
Pollen 6.50 out of 12
Air Quality Not available.
Flu Activity Not available.
METAR KGKY 011253Z 34007KT 2SM -RA BR OVC003 01/M01 A3032 RMK AO2 SFC VIS 3 RAB03E15B33 SLP269 P0001 T00111011

More Conditions Fewer Conditions

Nowcast | as of 3:17 am CST on March 1, 2015

Areas of light drizzle and freezing drizzle will continue to occur through daybreak across north and central Texas. The freezing line extended from just northwest of Lampasas...Hillsboro and Greenville to Bonham at 3 am. The freezing line shift very slowly northwest after daybreak. Bridges and overpasses will still have patchy icy spots as far southeast as a Bonham to Waxahachie to Lampasas line. More widespread snow/ice will remain on main Road surfaces along and northwest of a Goldthwaite to Gainesville line through midday Sunday. Check Road reports before traveling across the North Texas.

×

10-Day Weather Forecast

Almanac

Astronomy

Mar. 01, 2015 Rise Set
Actual Time
Civil Twilight
Nautical Twilight
Astronomical Twilight
Moon
Length of Visible Light
Length of Day
Tomorrow will be .
, % of the Moon is Illuminated

Today's Extremes

State Highs State Lows

Community

WunderPhotos

Upload Photos

1,801,371 photos uploaded!

WunderBlogs® & News

Nearby

Air Quality

  Air Quality AQ Index Pollutant
Not available.

Snow Depth

Station Depth Elevation

Earthquake Activity

City Distance Mag. Time & Date
Minimum magnitude displayed is 2.5.

Coastal Water Temperatures

Place Temperature

Nearby Weather Stations